Time;durP1;ratioP1;P1;durP2;ratioP2;P2;SDS_P1;SDS_P2;PMS_P1;PMS_P2;Temp;Humidity;BMP_temperature;BMP_pressure;BME280_temperature;BME280_humidity;BME280_pressure;Samples;Min_cycle;Max_cycle;Signal;HPM_P1;HPM_P2
2023/02/19 00:01:42;;;;;;;1999.90;999.90;;;10.30;99.90;;;;;;4991791;28;20454;-69
2023/02/19 00:04:16;;;;;;;1999.90;999.90;;;10.30;99.90;;;;;;4992044;28;20410;-69
2023/02/19 00:06:43;;;;;;;1999.90;999.90;;;10.30;99.90;;;;;;4995224;28;20420;-69
2023/02/19 00:09:11;;;;;;;1999.90;999.90;;;10.30;99.90;;;;;;4995398;28;20480;-69
2023/02/19 00:11:37;;;;;;;1999.90;999.90;;;10.30;99.90;;;;;;4995128;28;20500;-69
2023/02/19 00:14:03;;;;;;;1999.90;999.90;;;10.20;99.90;;;;;;4995427;28;20401;-69
2023/02/19 00:16:35;;;;;;;1999.90;999.90;;;10.30;99.90;;;;;;4994936;28;20455;-69
2023/02/19 00:19:06;;;;;;;1999.90;999.90;;;10.20;99.90;;;;;;4995419;28;20921;-69
2023/02/19 00:21:32;;;;;;;1999.90;999.90;;;10.30;99.90;;;;;;4995069;28;20458;-69
2023/02/19 00:24:02;;;;;;;1999.90;999.90;;;10.30;99.90;;;;;;4995076;28;20786;-69
2023/02/19 00:26:28;;;;;;;1999.90;999.90;;;10.30;99.90;;;;;;4994958;28;20507;-69
2023/02/19 00:28:55;;;;;;;1999.90;999.90;;;10.30;99.90;;;;;;4995065;28;20407;-69
2023/02/19 00:31:32;;;;;;;1999.90;999.90;;;10.30;99.90;;;;;;4994786;28;20408;-69
2023/02/19 00:34:00;;;;;;;1999.90;999.90;;;10.30;99.90;;;;;;4994920;28;20415;-69
2023/02/19 00:36:27;;;;;;;1999.90;999.90;;;10.30;99.90;;;;;;4994800;28;20431;-70
2023/02/19 00:38:53;;;;;;;1999.90;999.90;;;10.30;99.90;;;;;;4994823;28;20514;-69
2023/02/19 00:41:20;;;;;;;1999.90;999.90;;;10.40;99.90;;;;;;4994680;28;20533;-70
2023/02/19 00:43:48;;;;;;;1999.90;999.90;;;10.30;99.90;;;;;;4994751;28;20425;-71
2023/02/19 00:46:16;;;;;;;1999.90;999.90;;;10.20;99.90;;;;;;4994577;28;20416;-70
2023/02/19 00:48:41;;;;;;;1999.90;999.90;;;10.30;99.90;;;;;;4994679;28;20956;-70
2023/02/19 00:51:07;;;;;;;1999.90;999.90;;;10.20;99.90;;;;;;4994436;28;20398;-70
2023/02/19 00:53:33;;;;;;;1999.90;999.90;;;10.10;99.90;;;;;;4994552;28;20535;-70
2023/02/19 00:55:58;;;;;;;1999.90;999.90;;;10.20;99.90;;;;;;4994402;28;20193;-70
2023/02/19 00:58:24;;;;;;;1999.90;999.90;;;10.10;99.90;;;;;;4994539;28;20177;-70
2023/02/19 01:00:49;;;;;;;1999.90;999.90;;;10.10;99.90;;;;;;4994196;28;20192;-70
2023/02/19 01:03:15;;;;;;;1999.90;999.90;;;10.10;99.90;;;;;;4994443;28;20631;-69
2023/02/19 01:05:40;;;;;;;1999.90;999.90;;;10.20;99.90;;;;;;4994308;28;20193;-70
2023/02/19 01:08:06;;;;;;;1999.90;999.90;;;10.00;99.90;;;;;;4994151;28;20243;-69
2023/02/19 01:10:31;;;;;;;1999.90;999.90;;;10.10;99.90;;;;;;4994074;28;20179;-69
2023/02/19 01:12:57;;;;;;;1999.90;999.90;;;10.10;99.90;;;;;;4994121;28;20202;-69
2023/02/19 01:15:23;;;;;;;1999.90;999.90;;;10.10;99.90;;;;;;4993963;28;20209;-69
2023/02/19 01:17:48;;;;;;;1999.90;999.90;;;10.20;99.90;;;;;;4993951;28;20236;-69
2023/02/19 01:20:14;;;;;;;1999.90;999.90;;;10.20;99.90;;;;;;4994073;28;20228;-69
2023/02/19 01:22:39;;;;;;;1999.90;999.90;;;10.20;99.90;;;;;;4993714;28;20240;-69
2023/02/19 01:25:05;;;;;;;1999.90;999.90;;;10.10;99.90;;;;;;4993915;28;20189;-69
2023/02/19 01:27:31;;;;;;;1999.90;999.90;;;10.20;99.90;;;;;;4993861;28;20231;-69
2023/02/19 01:29:56;;;;;;;1999.90;999.90;;;10.10;99.90;;;;;;4993908;28;20914;-69
2023/02/19 01:32:22;;;;;;;1999.90;999.90;;;10.20;99.90;;;;;;4993725;28;20173;-69
2023/02/19 01:34:47;;;;;;;1999.90;999.90;;;10.20;99.90;;;;;;4993751;28;20642;-69
2023/02/19 01:37:13;;;;;;;1999.90;999.90;;;10.30;99.90;;;;;;4994087;28;20170;-68
2023/02/19 01:39:38;;;;;;;1999.90;999.90;;;10.40;99.90;;;;;;4993701;28;20177;-68
2023/02/19 01:42:10;;;;;;;1999.90;999.90;;;10.40;99.90;;;;;;4993400;28;20194;-68
2023/02/19 01:44:36;;;;;;;1999.90;999.90;;;10.60;99.90;;;;;;4993643;28;20159;-68
2023/02/19 01:47:01;;;;;;;1999.90;999.90;;;10.40;99.90;;;;;;4993475;28;20933;-68
2023/02/19 01:49:30;;;;;;;1999.90;999.90;;;10.40;99.90;;;;;;4993547;28;20173;-68
2023/02/19 01:52:19;;;;;;;1999.90;999.90;;;10.50;99.90;;;;;;4993342;28;20173;-68
2023/02/19 01:54:46;;;;;;;1999.90;999.90;;;10.40;99.90;;;;;;4987813;28;20429;-68
2023/02/19 01:57:20;;;;;;;1999.90;999.90;;;10.50;99.90;;;;;;4993333;28;20416;-68
2023/02/19 01:59:47;;;;;;;1999.90;999.90;;;10.60;99.90;;;;;;4993440;28;20405;-68
2023/02/19 02:02:12;;;;;;;1999.90;999.90;;;10.60;99.90;;;;;;4993100;28;20507;-68
2023/02/19 02:04:38;;;;;;;1999.90;999.90;;;10.40;99.90;;;;;;4993257;28;20405;-68
2023/02/19 02:10:18;;;;;;;1999.90;999.90;;;10.60;99.90;;;;;;4993095;28;20627;-68
2023/02/19 02:12:35;;;;;;;1999.90;999.90;;;10.60;99.90;;;;;;4992944;28;20422;-68
2023/02/19 02:15:02;;;;;;;1999.90;999.90;;;10.50;99.90;;;;;;4992896;28;20813;-69
2023/02/19 02:17:37;;;;;;;1999.90;999.90;;;10.50;99.90;;;;;;4992970;28;20173;-69
2023/02/19 02:20:25;;;;;;;1999.90;999.90;;;10.50;99.90;;;;;;4993038;28;20416;-69
2023/02/19 02:23:15;;;;;;;1999.90;999.90;;;10.40;99.90;;;;;;4992832;28;20848;-69
2023/02/19 02:26:12;;;;;;;1999.90;999.90;;;10.30;99.90;;;;;;4992848;28;20936;-69
2023/02/19 02:29:09;;;;;;;1999.90;999.90;;;10.30;99.90;;;;;;4978335;28;20426;-69
2023/02/19 02:31:42;;;;;;;1999.90;999.90;;;10.20;99.90;;;;;;4992688;28;20424;-70
2023/02/19 02:34:55;;;;;;;1999.90;999.90;;;10.30;99.90;;;;;;4992811;28;20408;-69
2023/02/19 02:37:23;;;;;;;1999.90;999.90;;;10.20;99.90;;;;;;4951708;29;20522;-70
2023/02/19 02:39:51;;;;;;;1999.90;999.90;;;10.20;99.90;;;;;;4988367;28;20423;-70
2023/02/19 02:42:29;;;;;;;1999.90;999.90;;;10.10;99.90;;;;;;4992461;28;20462;-70
2023/02/19 02:47:54;;;;;;;1999.90;999.90;;;10.00;99.90;;;;;;4992879;28;20454;-69
2023/02/19 02:50:26;;;;;;;1999.90;999.90;;;10.10;99.90;;;;;;4992648;28;20830;-69
2023/02/19 02:55:48;;;;;;;1999.90;999.90;;;10.00;99.90;;;;;;4992558;28;20477;-68
2023/02/19 02:58:16;;;;;;;1999.90;999.90;;;10.20;99.90;;;;;;4992525;28;20467;-68
2023/02/19 03:03:31;;;;;;;1999.90;999.90;;;10.10;99.90;;;;;;4992734;28;21113;-68
2023/02/19 03:06:03;;;;;;;1999.90;999.90;;;10.00;99.90;;;;;;4992271;28;20423;-68
2023/02/19 03:09:00;;;;;;;1999.90;999.90;;;10.10;99.90;;;;;;4992400;28;20408;-68
2023/02/19 03:19:59;;;;;;;1999.90;999.90;;;10.20;99.90;;;;;;4992362;28;20411;-68
2023/02/19 03:22:32;;;;;;;1999.90;999.90;;;10.10;99.90;;;;;;4992126;28;20904;-68
2023/02/19 03:28:06;;;;;;;1999.90;999.90;;;10.20;99.90;;;;;;4992598;28;20383;-68
2023/02/19 03:30:35;;;;;;;1999.90;999.90;;;10.10;99.90;;;;;;4992076;28;20412;-68
2023/02/19 03:33:19;;;;;;;1999.90;999.90;;;10.30;99.90;;;;;;4992399;28;20415;-68
2023/02/19 03:36:06;;;;;;;1999.90;999.90;;;10.20;99.90;;;;;;4992171;28;20799;-68
2023/02/19 03:38:51;;;;;;;1999.90;999.90;;;10.20;99.90;;;;;;4992321;28;20412;-68
2023/02/19 03:41:38;;;;;;;1999.90;999.90;;;10.30;99.90;;;;;;4995361;28;20451;-68
2023/02/19 03:44:13;;;;;;;1999.90;999.90;;;10.20;99.90;;;;;;4995959;28;20432;-68
2023/02/19 03:46:47;;;;;;;1999.90;999.90;;;10.20;99.90;;;;;;4995696;28;20801;-68
2023/02/19 03:49:23;;;;;;;1999.90;999.90;;;10.20;99.90;;;;;;4995730;28;20420;-68
2023/02/19 03:52:07;;;;;;;1999.90;999.90;;;10.20;99.90;;;;;;4995900;28;20453;-68
2023/02/19 03:54:45;;;;;;;1999.90;999.90;;;10.20;99.90;;;;;;4995786;28;20388;-68
2023/02/19 03:57:35;;;;;;;1999.90;999.90;;;10.20;99.90;;;;;;4995753;28;21027;-68
2023/02/19 04:00:16;;;;;;;1999.90;999.90;;;10.30;99.90;;;;;;4995619;28;20410;-68
2023/02/19 04:03:13;;;;;;;1999.90;999.90;;;10.30;99.90;;;;;;4995317;28;20534;-68
2023/02/19 04:05:45;;;;;;;1999.90;999.90;;;10.30;99.90;;;;;;4995382;28;20415;-68
2023/02/19 04:08:18;;;;;;;1999.90;999.90;;;10.20;99.90;;;;;;4995462;28;20423;-68
2023/02/19 04:10:45;;;;;;;1999.90;999.90;;;10.20;99.90;;;;;;4995193;28;20451;-68
2023/02/19 04:13:30;;;;;;;1999.90;999.90;;;10.20;99.90;;;;;;4995507;28;20845;-68
2023/02/19 04:16:01;;;;;;;1999.90;999.90;;;10.20;99.90;;;;;;4995119;28;20859;-68
2023/02/19 04:18:31;;;;;;;1999.90;999.90;;;10.20;99.90;;;;;;4995315;28;20497;-68
2023/02/19 04:20:59;;;;;;;1999.90;999.90;;;10.10;99.90;;;;;;4994936;28;20454;-68
2023/02/19 04:23:28;;;;;;;1999.90;999.90;;;10.30;99.90;;;;;;4995181;28;20545;-68
2023/02/19 04:25:58;;;;;;;1999.90;999.90;;;10.20;99.90;;;;;;4995094;28;20420;-68
2023/02/19 04:28:23;;;;;;;1999.90;999.90;;;10.10;99.90;;;;;;4995363;28;20407;-68
2023/02/19 04:30:49;;;;;;;1999.90;999.90;;;10.10;99.90;;;;;;4994862;28;20977;-68
2023/02/19 04:33:14;;;;;;;1999.90;999.90;;;10.10;99.90;;;;;;4995162;28;20181;-68
2023/02/19 04:35:40;;;;;;;1999.90;999.90;;;10.10;99.90;;;;;;4994852;28;20727;-68
2023/02/19 04:38:07;;;;;;;1999.90;999.90;;;10.00;99.90;;;;;;4994830;28;20199;-69
2023/02/19 04:40:33;;;;;;;1999.90;999.90;;;10.00;99.90;;;;;;4994689;28;20183;-69
2023/02/19 04:42:58;;;;;;;1999.90;999.90;;;9.80;99.90;;;;;;4994833;28;20456;-71
2023/02/19 04:45:24;;;;;;;1999.90;999.90;;;9.80;99.90;;;;;;4994640;28;20249;-70
2023/02/19 04:47:49;;;;;;;1999.90;999.90;;;9.70;99.90;;;;;;4994608;28;20571;-70
2023/02/19 04:50:15;;;;;;;1999.90;999.90;;;9.70;99.90;;;;;;4994213;28;20180;-69
2023/02/19 04:52:41;;;;;;;1999.90;999.90;;;9.70;99.90;;;;;;4994509;28;20264;-69
2023/02/19 04:55:07;;;;;;;1999.90;999.90;;;9.70;99.90;;;;;;4994499;28;20215;-69
2023/02/19 04:57:34;;;;;;;1999.90;999.90;;;9.70;99.90;;;;;;4994378;28;20188;-68
2023/02/19 04:59:59;;;;;;;1999.90;999.90;;;9.70;99.90;;;;;;4994405;28;20427;-68
2023/02/19 05:02:25;;;;;;;1999.90;999.90;;;9.60;99.90;;;;;;4994166;28;20471;-68
2023/02/19 05:04:50;;;;;;;1999.90;999.90;;;9.50;99.90;;;;;;4994489;28;20169;-68
2023/02/19 05:07:16;;;;;;;1999.90;999.90;;;9.80;99.90;;;;;;4994275;28;20177;-68
2023/02/19 05:09:41;;;;;;;1999.90;999.90;;;9.70;99.90;;;;;;4994398;28;20172;-68
2023/02/19 05:12:07;;;;;;;1999.90;999.90;;;9.70;99.90;;;;;;4994021;28;20180;-68
2023/02/19 05:14:32;;;;;;;1999.90;999.90;;;9.70;99.90;;;;;;4994159;28;20179;-68
2023/02/19 05:16:58;;;;;;;1999.90;999.90;;;9.70;99.90;;;;;;4994182;28;20274;-68
2023/02/19 05:19:23;;;;;;;1999.90;999.90;;;9.70;99.90;;;;;;4994138;28;20175;-68
2023/02/19 05:21:49;;;;;;;1999.90;999.90;;;9.70;99.90;;;;;;4993864;28;20208;-68
2023/02/19 05:24:15;;;;;;;1999.90;999.90;;;9.70;99.90;;;;;;4994083;28;20200;-68
2023/02/19 05:26:40;;;;;;;1999.90;999.90;;;9.60;99.90;;;;;;4993855;28;20556;-68
2023/02/19 05:29:06;;;;;;;1999.90;999.90;;;9.60;99.90;;;;;;4993945;28;20188;-68
2023/02/19 05:31:34;;;;;;;1999.90;999.90;;;9.60;99.90;;;;;;4993684;28;20637;-67
2023/02/19 05:34:00;;;;;;;1999.90;999.90;;;9.60;99.90;;;;;;4993962;28;20175;-68
2023/02/19 05:36:26;;;;;;;1999.90;999.90;;;9.50;99.90;;;;;;4993725;28;20945;-67
2023/02/19 05:38:53;;;;;;;1999.90;999.90;;;9.50;99.90;;;;;;4993771;28;20740;-67
2023/02/19 05:41:24;;;;;;;1999.90;999.90;;;9.50;99.90;;;;;;4993506;28;20535;-67
2023/02/19 05:43:50;;;;;;;1999.90;999.90;;;9.50;99.90;;;;;;4993644;28;20400;-67
2023/02/19 05:46:19;;;;;;;1999.90;999.90;;;9.50;99.90;;;;;;4993381;28;20427;-67
2023/02/19 05:48:45;;;;;;;1999.90;999.90;;;9.50;99.90;;;;;;4993562;28;20414;-67
2023/02/19 05:51:14;;;;;;;1999.90;999.90;;;9.50;99.90;;;;;;4993347;28;20423;-68
2023/02/19 05:53:41;;;;;;;1999.90;999.90;;;9.40;99.90;;;;;;4993505;28;20414;-67
2023/02/19 05:56:24;;;;;;;1999.90;999.90;;;9.40;99.90;;;;;;4993177;28;20458;-67
2023/02/19 05:58:51;;;;;;;1999.90;999.90;;;9.40;99.90;;;;;;4993412;28;20404;-67
2023/02/19 06:01:18;;;;;;;1999.90;999.90;;;9.40;99.90;;;;;;4993047;28;21041;-66
2023/02/19 06:03:44;;;;;;;1999.90;999.90;;;9.40;99.90;;;;;;4992645;28;20437;-66
2023/02/19 06:06:13;;;;;;;1999.90;999.90;;;9.40;99.90;;;;;;4993092;28;20937;-67
2023/02/19 06:08:38;;;;;;;1999.90;999.90;;;9.40;99.90;;;;;;4993181;28;20176;-67
2023/02/19 06:11:04;;;;;;;1999.90;999.90;;;9.40;99.90;;;;;;4993278;28;20806;-66
2023/02/19 06:13:30;;;;;;;1999.90;999.90;;;9.50;99.90;;;;;;4993111;28;20184;-67
2023/02/19 06:15:55;;;;;;;1999.90;999.90;;;9.50;99.90;;;;;;4992811;28;20220;-67
2023/02/19 06:18:21;;;;;;;1999.90;999.90;;;9.50;99.90;;;;;;4993106;28;20240;-66
2023/02/19 06:20:47;;;;;;;1999.90;999.90;;;9.50;99.90;;;;;;4992822;28;20169;-67
2023/02/19 06:23:12;;;;;;;1999.90;999.90;;;9.50;99.90;;;;;;4992874;28;20244;-66
2023/02/19 06:25:38;;;;;;;1999.90;999.90;;;9.50;99.90;;;;;;4992834;28;20218;-67
2023/02/19 06:28:04;;;;;;;1999.90;999.90;;;9.60;99.90;;;;;;4992804;28;20261;-67
2023/02/19 06:30:30;;;;;;;1999.90;999.90;;;9.50;99.90;;;;;;4992777;28;20263;-67
2023/02/19 06:32:55;;;;;;;1999.90;999.90;;;9.60;99.90;;;;;;4992847;28;20173;-67
2023/02/19 06:35:21;;;;;;;1999.90;999.90;;;9.60;99.90;;;;;;4992821;28;20686;-67
2023/02/19 06:37:48;;;;;;;1999.90;999.90;;;9.50;99.90;;;;;;4992659;28;20173;-67
2023/02/19 06:40:14;;;;;;;1999.90;999.90;;;9.60;99.90;;;;;;4992748;28;20173;-67
2023/02/19 06:42:39;;;;;;;1999.90;999.90;;;9.60;99.90;;;;;;4992430;28;20460;-67
2023/02/19 06:45:05;;;;;;;1999.90;999.90;;;9.50;99.90;;;;;;4992620;28;20482;-67
2023/02/19 06:47:31;;;;;;;1999.90;999.90;;;9.50;99.90;;;;;;4992563;28;20174;-67
2023/02/19 06:49:57;;;;;;;1999.90;999.90;;;9.50;99.90;;;;;;4992587;28;20902;-67
2023/02/19 06:52:23;;;;;;;1999.90;999.90;;;9.50;99.90;;;;;;4992379;28;20464;-67
2023/02/19 06:54:48;;;;;;;1999.90;999.90;;;9.70;99.90;;;;;;4992598;28;20416;-67
2023/02/19 06:57:14;;;;;;;1999.90;999.90;;;9.40;99.90;;;;;;4992505;28;20571;-68
2023/02/19 06:59:39;;;;;;;1999.90;999.90;;;9.40;99.90;;;;;;4992485;28;20175;-67
2023/02/19 07:02:05;;;;;;;1999.90;999.90;;;9.50;99.90;;;;;;4992238;28;20304;-67
2023/02/19 07:04:30;;;;;;;1999.90;999.90;;;9.40;99.90;;;;;;4992460;28;20226;-67
2023/02/19 07:06:56;;;;;;;1999.90;999.90;;;9.40;99.90;;;;;;4992314;28;20247;-67
2023/02/19 07:09:24;;;;;;;1999.90;999.90;;;9.40;99.90;;;;;;4992471;28;20596;-67
2023/02/19 07:11:49;;;;;;;1999.90;999.90;;;9.40;99.90;;;;;;4992434;28;20176;-68
2023/02/19 07:14:16;;;;;;;1999.90;999.90;;;9.40;99.90;;;;;;4994466;28;20777;-68
2023/02/19 07:16:42;;;;;;;1999.90;999.90;;;9.40;99.90;;;;;;4996118;28;20294;-68
2023/02/19 07:19:09;;;;;;;1999.90;999.90;;;9.40;99.90;;;;;;4996424;28;20405;-67
2023/02/19 07:21:36;;;;;;;1999.90;999.90;;;9.50;99.90;;;;;;4995910;28;20441;-67
2023/02/19 07:24:03;;;;;;;1999.90;999.90;;;9.30;99.90;;;;;;4996300;28;20423;-67
2023/02/19 07:26:29;;;;;;;1999.90;999.90;;;9.30;99.90;;;;;;4996047;28;20446;-68
2023/02/19 07:28:54;;;;;;;1999.90;999.90;;;9.30;99.90;;;;;;4996240;28;20408;-68
2023/02/19 07:31:22;;;;;;;1999.90;999.90;;;9.40;99.90;;;;;;4995981;28;20723;-68
2023/02/19 07:33:48;;;;;;;1999.90;999.90;;;9.30;99.90;;;;;;4996124;28;20533;-67
2023/02/19 07:36:16;;;;;;;1999.90;999.90;;;9.30;99.90;;;;;;4996261;28;20795;-67
2023/02/19 07:38:42;;;;;;;1999.90;999.90;;;9.30;99.90;;;;;;4995973;28;20430;-67
2023/02/19 07:41:08;;;;;;;1999.90;999.90;;;9.30;99.90;;;;;;4995678;28;20442;-67
2023/02/19 07:43:35;;;;;;;1999.90;999.90;;;9.30;99.90;;;;;;4995883;28;20398;-67
2023/02/19 07:46:06;;;;;;;1999.90;999.90;;;9.30;99.90;;;;;;4995642;28;20859;-67
2023/02/19 07:48:33;;;;;;;1999.90;999.90;;;9.30;99.90;;;;;;4995816;28;20407;-67
2023/02/19 07:50:59;;;;;;;1999.90;999.90;;;9.30;99.90;;;;;;4995576;28;20407;-67
2023/02/19 07:53:26;;;;;;;1999.90;999.90;;;9.30;99.90;;;;;;4995740;28;20404;-67
2023/02/19 07:55:52;;;;;;;1999.90;999.90;;;9.40;99.90;;;;;;4995521;28;20418;-67
2023/02/19 07:58:18;;;;;;;1999.90;999.90;;;9.40;99.90;;;;;;4995627;28;20404;-67
2023/02/19 08:00:44;;;;;;;1999.90;999.90;;;9.40;99.90;;;;;;4995366;28;20815;-66
2023/02/19 08:03:10;;;;;;;1999.90;999.90;;;9.50;99.90;;;;;;4995575;28;20172;-67
2023/02/19 08:05:38;;;;;;;1999.90;999.90;;;9.50;99.90;;;;;;4995339;28;20459;-67
2023/02/19 08:08:08;;;;;;;1999.90;999.90;;;9.50;99.90;;;;;;4995335;28;20411;-67
2023/02/19 08:13:19;;;;;;;1999.90;999.90;;;9.60;99.90;;;;;;4995639;28;20925;-67
2023/02/19 08:15:45;;;;;;;1999.90;999.90;;;9.60;99.90;;;;;;4995066;28;20501;-67
2023/02/19 08:18:13;;;;;;;1999.90;999.90;;;9.60;99.90;;;;;;4995230;28;20404;-67
2023/02/19 08:20:39;;;;;;;1999.90;999.90;;;9.60;99.90;;;;;;4995065;28;20408;-67
2023/02/19 08:23:06;;;;;;;1999.90;999.90;;;9.60;99.90;;;;;;4995154;28;20475;-67
2023/02/19 08:25:32;;;;;;;1999.90;999.90;;;9.50;99.90;;;;;;4994242;28;20424;-67
2023/02/19 08:27:59;;;;;;;1999.90;999.90;;;9.60;99.90;;;;;;4994958;28;20410;-68
2023/02/19 08:30:25;;;;;;;1999.90;999.90;;;9.60;99.90;;;;;;4994858;28;20459;-68
2023/02/19 08:32:51;;;;;;;1999.90;999.90;;;9.70;99.90;;;;;;4995008;28;21021;-68
2023/02/19 08:35:17;;;;;;;1999.90;999.90;;;9.70;99.90;;;;;;4994955;28;20516;-68
2023/02/19 08:37:42;;;;;;;1999.90;999.90;;;9.80;99.90;;;;;;4994903;28;20184;-67
2023/02/19 08:40:08;;;;;;;1999.90;999.90;;;9.90;99.90;;;;;;4995099;28;20176;-68
2023/02/19 08:42:34;;;;;;;1999.90;999.90;;;9.80;99.90;;;;;;4994585;28;20847;-69
2023/02/19 08:44:59;;;;;;;1999.90;999.90;;;9.80;99.90;;;;;;4994645;28;20535;-68
2023/02/19 08:47:25;;;;;;;1999.90;999.90;;;9.90;99.90;;;;;;4994683;28;20682;-68
2023/02/19 08:49:51;;;;;;;1999.90;999.90;;;9.90;99.90;;;;;;4994660;28;20166;-67
2023/02/19 08:52:16;;;;;;;1999.90;999.90;;;10.20;99.90;;;;;;4994544;28;20169;-68
2023/02/19 08:54:42;;;;;;;1999.90;999.90;;;10.10;99.90;;;;;;4994559;28;20180;-68
2023/02/19 08:57:07;;;;;;;1999.90;999.90;;;10.20;99.90;;;;;;4994479;28;20623;-69
2023/02/19 08:59:33;;;;;;;1999.90;999.90;;;10.10;99.90;;;;;;4994439;28;20204;-67
2023/02/19 09:01:58;;;;;;;1999.90;999.90;;;10.30;99.90;;;;;;4994206;28;20227;-69
2023/02/19 09:04:24;;;;;;;1999.90;999.90;;;10.20;99.90;;;;;;4994369;28;20251;-68
2023/02/19 09:06:49;;;;;;;1999.90;999.90;;;10.20;99.90;;;;;;4994177;28;20268;-68
2023/02/19 09:09:15;;;;;;;1999.90;999.90;;;10.30;99.90;;;;;;4994329;28;20569;-67
2023/02/19 09:11:41;;;;;;;1999.90;999.90;;;10.30;99.90;;;;;;4994046;28;20200;-68
2023/02/19 09:14:06;;;;;;;1999.90;999.90;;;10.20;99.90;;;;;;4994141;28;20243;-68
2023/02/19 09:16:33;;;;;;;1999.90;999.90;;;10.30;99.90;;;;;;4993855;28;20208;-67
2023/02/19 09:18:59;;;;;;;1999.90;999.90;;;10.30;99.90;;;;;;4994174;28;20165;-67
2023/02/19 09:21:24;;;;;;;1999.90;999.90;;;10.10;99.90;;;;;;4993878;28;21035;-67
2023/02/19 09:23:50;;;;;;;1999.90;999.90;;;10.10;99.90;;;;;;4994029;28;20192;-67
2023/02/19 09:26:16;;;;;;;1999.90;999.90;;;10.00;99.90;;;;;;4993749;28;20666;-67
2023/02/19 09:28:42;;;;;;;1999.90;999.90;;;10.00;99.90;;;;;;4993844;28;20173;-68
2023/02/19 09:31:12;;;;;;;1999.90;999.90;;;9.90;99.90;;;;;;4993925;28;20176;-68
2023/02/19 09:33:42;;;;;;;1999.90;999.90;;;9.90;99.90;;;;;;4993803;28;20438;-67
2023/02/19 09:36:08;;;;;;;1999.90;999.90;;;9.80;99.90;;;;;;4993547;28;20428;-68
2023/02/19 09:38:33;;;;;;;1999.90;999.90;;;9.80;99.90;;;;;;4993733;28;20430;-67
2023/02/19 09:41:06;;;;;;;1999.90;999.90;;;9.70;99.90;;;;;;4993458;28;20255;-67
2023/02/19 09:43:32;;;;;;;1999.90;999.90;;;9.60;99.90;;;;;;4993879;28;20205;-67
2023/02/19 09:46:30;;;;;;;1999.90;999.90;;;9.40;99.90;;;;;;4993418;28;20522;-68
2023/02/19 09:49:11;;;;;;;1999.90;999.90;;;9.40;99.90;;;;;;4993156;28;20861;-67
2023/02/19 09:51:40;;;;;;;1999.90;999.90;;;9.40;99.90;;;;;;4991973;28;20454;-67
2023/02/19 09:54:13;;;;;;;1999.90;999.90;;;9.40;99.90;;;;;;4993416;28;20435;-67
2023/02/19 09:56:39;;;;;;;1999.90;999.90;;;9.40;99.90;;;;;;4993352;28;20832;-67
2023/02/19 09:59:05;;;;;;;1999.90;999.90;;;9.50;99.90;;;;;;4993336;28;20420;-67
2023/02/19 10:01:37;;;;;;;1999.90;999.90;;;9.60;99.90;;;;;;4993041;28;20228;-67
2023/02/19 10:04:03;;;;;;;1999.90;999.90;;;9.60;99.90;;;;;;4993216;28;20415;-67
2023/02/19 10:06:31;;;;;;;1999.90;999.90;;;9.60;99.90;;;;;;4993009;28;20525;-68
2023/02/19 10:09:17;;;;;;;1999.90;999.90;;;9.60;99.90;;;;;;4993380;28;20551;-67
2023/02/19 10:11:43;;;;;;;1999.90;999.90;;;9.60;99.90;;;;;;4992947;28;20413;-67
2023/02/19 10:14:25;;;;;;;1999.90;999.90;;;9.60;99.90;;;;;;4993055;28;20427;-67
2023/02/19 10:16:52;;;;;;;1999.90;999.90;;;9.60;99.90;;;;;;4992870;28;20545;-67
2023/02/19 10:19:17;;;;;;;1999.90;999.90;;;9.70;99.90;;;;;;4993018;28;20847;-67
2023/02/19 10:21:43;;;;;;;1999.90;999.90;;;9.70;99.90;;;;;;4992692;28;20546;-67
2023/02/19 10:24:22;;;;;;;1999.90;999.90;;;9.70;99.90;;;;;;4992941;28;20421;-67
2023/02/19 10:26:49;;;;;;;1999.90;999.90;;;9.80;99.90;;;;;;4992706;28;20428;-67
2023/02/19 10:29:15;;;;;;;1999.90;999.90;;;9.80;99.90;;;;;;4992848;28;20471;-67
2023/02/19 10:31:40;;;;;;;1999.90;999.90;;;9.80;99.90;;;;;;4992690;28;21075;-67
2023/02/19 10:34:21;;;;;;;1999.90;999.90;;;9.90;99.90;;;;;;4992830;28;20173;-67
2023/02/19 10:36:49;;;;;;;1999.90;999.90;;;10.00;99.90;;;;;;4992600;28;20220;-67
2023/02/19 10:39:21;;;;;;;1999.90;999.90;;;10.10;99.90;;;;;;4992793;28;20831;-67
2023/02/19 10:41:49;;;;;;;1999.90;999.90;;;10.10;99.90;;;;;;4997105;28;20454;-66
2023/02/19 10:44:23;;;;;;;1999.90;999.90;;;10.20;99.90;;;;;;5011609;28;20412;-65
2023/02/19 10:46:54;;;;;;;1999.90;999.90;;;10.10;99.90;;;;;;4992475;28;20424;-64
2023/02/19 10:49:32;;;;;;;1999.90;999.90;;;10.10;99.90;;;;;;4989072;28;20413;-64
2023/02/19 10:52:23;;;;;;;1999.90;999.90;;;10.20;99.90;;;;;;4997411;28;20508;-66
2023/02/19 10:54:51;;;;;;;1999.90;999.90;;;10.00;99.90;;;;;;5011496;28;20816;-65
2023/02/19 10:57:17;;;;;;;1999.90;999.90;;;10.10;99.90;;;;;;5011200;28;20421;-65
2023/02/19 10:59:52;;;;;;;1999.90;999.90;;;10.20;99.90;;;;;;5011793;28;20412;-65
2023/02/19 11:02:19;;;;;;;1999.90;999.90;;;10.20;99.90;;;;;;5010852;28;20257;-66
2023/02/19 11:05:08;;;;;;;1999.90;999.90;;;10.30;99.90;;;;;;5011419;28;20437;-67
2023/02/19 11:07:42;;;;;;;1999.90;999.90;;;10.30;99.90;;;;;;5000858;28;20523;-65
2023/02/19 11:10:24;;;;;;;1999.90;999.90;;;10.10;99.90;;;;;;5011142;28;20411;-66
2023/02/19 11:12:51;;;;;;;1999.90;999.90;;;10.00;99.90;;;;;;5011342;28;20435;-66
2023/02/19 11:15:35;;;;;;;1999.90;999.90;;;9.90;99.90;;;;;;5011018;28;20485;-67
2023/02/19 11:18:19;;;;;;;1999.90;999.90;;;9.80;99.90;;;;;;5011595;28;20418;-65
2023/02/19 11:20:55;;;;;;;1999.90;999.90;;;9.70;99.90;;;;;;5011739;28;20918;-66
2023/02/19 11:23:33;;;;;;;1999.90;999.90;;;9.60;99.90;;;;;;5011770;28;20460;-66
2023/02/19 11:26:02;;;;;;;1999.90;999.90;;;9.60;99.90;;;;;;5011753;28;20948;-66
2023/02/19 11:28:41;;;;;;;1999.90;999.90;;;9.50;99.90;;;;;;5011839;28;20427;-65
2023/02/19 11:31:30;;;;;;;1999.90;999.90;;;9.50;99.90;;;;;;5011622;28;20427;-65
2023/02/19 11:33:56;;;;;;;1999.90;999.90;;;9.70;99.90;;;;;;5012011;28;20405;-65
2023/02/19 11:36:32;;;;;;;1999.90;999.90;;;9.70;99.90;;;;;;5011630;28;20416;-65
2023/02/19 11:39:04;;;;;;;1999.90;999.90;;;9.90;99.90;;;;;;5011817;28;20704;-65
2023/02/19 11:41:54;;;;;;;1999.90;999.90;;;9.90;99.90;;;;;;5011618;28;20439;-65
2023/02/19 11:44:33;;;;;;;1999.90;999.90;;;10.00;99.90;;;;;;5011783;28;20394;-65
2023/02/19 11:47:14;;;;;;;1999.90;999.90;;;10.10;99.90;;;;;;5011482;28;20423;-66
2023/02/19 11:50:05;;;;;;;1999.90;999.90;;;10.10;99.90;;;;;;5011771;28;20410;-64
2023/02/19 11:52:57;;;;;;;1999.90;999.90;;;10.10;99.90;;;;;;5011515;28;20769;-65
2023/02/19 11:56:01;;;;;;;1999.90;999.90;;;10.20;99.90;;;;;;4971092;28;20446;-65
2023/02/19 11:58:52;;;;;;;1999.90;999.90;;;10.30;99.90;;;;;;5010518;28;20406;-66
2023/02/19 12:01:37;;;;;;;1999.90;999.90;;;10.40;99.90;;;;;;5013636;28;20579;-65
2023/02/19 12:04:24;;;;;;;1999.90;999.90;;;10.60;99.90;;;;;;5015327;28;20782;-65
2023/02/19 12:07:40;;;;;;;1999.90;999.90;;;10.70;99.90;;;;;;5015005;28;20418;-64
2023/02/19 12:10:24;;;;;;;1999.90;999.90;;;10.90;99.90;;;;;;4981808;28;20416;-64
2023/02/19 12:13:20;;;;;;;1999.90;999.90;;;11.10;99.90;;;;;;5014998;28;20411;-64
2023/02/19 12:16:20;;;;;;;1999.90;999.90;;;11.20;99.90;;;;;;5014914;28;20451;-64
2023/02/19 12:19:19;;;;;;;1999.90;999.90;;;11.30;99.90;;;;;;5014945;28;20411;-63
2023/02/19 12:22:04;;;;;;;1999.90;999.90;;;11.40;99.90;;;;;;5014984;28;20826;-63
2023/02/19 12:24:45;;;;;;;1999.90;999.90;;;11.40;99.90;;;;;;5014863;28;20425;-63
2023/02/19 12:27:17;;;;;;;1999.90;999.90;;;11.60;99.90;;;;;;5014729;28;20411;-63
2023/02/19 12:29:42;;;;;;;1999.90;999.90;;;11.60;99.90;;;;;;5015090;28;20771;-64
2023/02/19 12:32:45;;;;;;;1999.90;999.90;;;11.50;99.90;;;;;;5014431;28;20503;-64
2023/02/19 12:35:30;;;;;;;1999.90;999.90;;;11.50;99.90;;;;;;5014003;28;20204;-64
2023/02/19 12:38:36;;;;;;;1999.90;999.90;;;11.40;99.90;;;;;;5014432;28;20404;-64
2023/02/19 12:41:02;;;;;;;1999.90;999.90;;;11.40;99.90;;;;;;5014453;28;20418;-65
2023/02/19 12:43:29;;;;;;;1999.90;999.90;;;11.20;99.90;;;;;;5014680;28;20407;-63
2023/02/19 12:46:03;;;;;;;1999.90;999.90;;;11.10;99.90;;;;;;5014443;28;20669;-63
2023/02/19 12:48:38;;;;;;;1999.90;999.90;;;11.00;99.90;;;;;;5014628;28;20415;-64